sensor_id;sensor_type;location;lat;lon;timestamp;pressure;altitude;pressure_sealevel;temperature;humidity
39141;BME280;24875;48.436;10.298;2023-03-04T00:02:12;96698.59;;;0.67;94.76
39141;BME280;24875;48.436;10.298;2023-03-04T00:04:39;96689.53;;;0.85;94.77
39141;BME280;24875;48.436;10.298;2023-03-04T00:07:06;96699.75;;;0.63;95.98
39141;BME280;24875;48.436;10.298;2023-03-04T00:09:32;96697.91;;;0.53;95.95
39141;BME280;24875;48.436;10.298;2023-03-04T00:11:59;96700.38;;;0.54;96.15
39141;BME280;24875;48.436;10.298;2023-03-04T00:14:25;96700.66;;;0.62;96.25
39141;BME280;24875;48.436;10.298;2023-03-04T00:16:52;96695.94;;;0.56;96.80
39141;BME280;24875;48.436;10.298;2023-03-04T00:19:18;96692.78;;;0.63;96.73
39141;BME280;24875;48.436;10.298;2023-03-04T00:21:46;96691.75;;;0.66;96.61
39141;BME280;24875;48.436;10.298;2023-03-04T00:24:13;96693.63;;;0.64;96.77
39141;BME280;24875;48.436;10.298;2023-03-04T00:26:39;96694.97;;;0.57;96.26
39141;BME280;24875;48.436;10.298;2023-03-04T00:29:06;96695.50;;;0.62;95.29
39141;BME280;24875;48.436;10.298;2023-03-04T00:31:32;96697.03;;;0.64;94.84
39141;BME280;24875;48.436;10.298;2023-03-04T00:33:59;96695.72;;;0.59;94.87
39141;BME280;24875;48.436;10.298;2023-03-04T00:36:25;96697.78;;;0.66;94.03
39141;BME280;24875;48.436;10.298;2023-03-04T00:38:53;96702.75;;;0.57;93.67
39141;BME280;24875;48.436;10.298;2023-03-04T00:41:19;96705.69;;;0.40;95.39
39141;BME280;24875;48.436;10.298;2023-03-04T00:43:46;96711.50;;;0.31;100.00
39141;BME280;24875;48.436;10.298;2023-03-04T00:46:12;96704.00;;;0.39;100.00
39141;BME280;24875;48.436;10.298;2023-03-04T00:48:39;96708.38;;;0.26;100.00
39141;BME280;24875;48.436;10.298;2023-03-04T00:51:05;96710.03;;;0.40;100.00
39141;BME280;24875;48.436;10.298;2023-03-04T00:53:32;96698.53;;;0.31;100.00
39141;BME280;24875;48.436;10.298;2023-03-04T00:56:00;96697.78;;;0.54;98.50
39141;BME280;24875;48.436;10.298;2023-03-04T00:58:26;96694.06;;;0.46;97.13
39141;BME280;24875;48.436;10.298;2023-03-04T01:00:53;96696.97;;;0.29;97.67
39141;BME280;24875;48.436;10.298;2023-03-04T01:03:19;96690.47;;;0.36;95.95
39141;BME280;24875;48.436;10.298;2023-03-04T01:05:46;96689.31;;;0.40;96.37
39141;BME280;24875;48.436;10.298;2023-03-04T01:08:12;96690.25;;;0.26;96.56
39141;BME280;24875;48.436;10.298;2023-03-04T01:10:39;96689.19;;;0.16;98.99
39141;BME280;24875;48.436;10.298;2023-03-04T01:13:07;96681.13;;;0.33;98.55
39141;BME280;24875;48.436;10.298;2023-03-04T01:15:33;96679.34;;;0.34;96.30
39141;BME280;24875;48.436;10.298;2023-03-04T01:18:00;96686.84;;;0.26;94.89
39141;BME280;24875;48.436;10.298;2023-03-04T01:20:26;96680.16;;;0.34;95.36
39141;BME280;24875;48.436;10.298;2023-03-04T01:22:53;96675.09;;;0.33;96.94
39141;BME280;24875;48.436;10.298;2023-03-04T01:25:19;96680.16;;;0.34;96.38
39141;BME280;24875;48.436;10.298;2023-03-04T01:27:46;96673.53;;;0.30;93.79
39141;BME280;24875;48.436;10.298;2023-03-04T01:30:14;96670.03;;;0.31;95.21
39141;BME280;24875;48.436;10.298;2023-03-04T01:32:40;96667.03;;;0.37;95.44
39141;BME280;24875;48.436;10.298;2023-03-04T01:35:07;96673.13;;;0.36;94.57
39141;BME280;24875;48.436;10.298;2023-03-04T01:37:34;96659.53;;;0.33;94.27
39141;BME280;24875;48.436;10.298;2023-03-04T01:40:00;96658.84;;;0.31;94.20
39141;BME280;24875;48.436;10.298;2023-03-04T01:42:29;96667.03;;;0.37;95.16
39141;BME280;24875;48.436;10.298;2023-03-04T01:44:57;96656.31;;;0.29;94.14
39141;BME280;24875;48.436;10.298;2023-03-04T01:47:27;96660.91;;;0.38;95.82
39141;BME280;24875;48.436;10.298;2023-03-04T01:49:56;96657.59;;;0.36;95.83
39141;BME280;24875;48.436;10.298;2023-03-04T01:52:23;96643.28;;;0.31;94.55
39141;BME280;24875;48.436;10.298;2023-03-04T01:54:51;96648.88;;;0.12;92.29
39141;BME280;24875;48.436;10.298;2023-03-04T01:57:20;96645.38;;;0.13;94.39
39141;BME280;24875;48.436;10.298;2023-03-04T02:00:14;96641.00;;;0.14;96.62
39141;BME280;24875;48.436;10.298;2023-03-04T02:02:44;96638.53;;;0.12;95.59
39141;BME280;24875;48.436;10.298;2023-03-04T02:05:11;96633.16;;;0.03;96.17
39141;BME280;24875;48.436;10.298;2023-03-04T02:07:38;96639.78;;;0.07;96.23
39141;BME280;24875;48.436;10.298;2023-03-04T02:10:05;96636.84;;;0.11;94.87
39141;BME280;24875;48.436;10.298;2023-03-04T02:12:32;96642.03;;;0.11;93.02
39141;BME280;24875;48.436;10.298;2023-03-04T02:14:58;96642.06;;;-0.01;92.45
39141;BME280;24875;48.436;10.298;2023-03-04T02:17:25;96643.72;;;0.00;93.19
39141;BME280;24875;48.436;10.298;2023-03-04T02:19:57;96643.94;;;0.09;92.35
39141;BME280;24875;48.436;10.298;2023-03-04T02:22:27;96642.06;;;-0.01;92.72
39141;BME280;24875;48.436;10.298;2023-03-04T02:24:57;96646.84;;;-0.07;95.01
39141;BME280;24875;48.436;10.298;2023-03-04T02:27:27;96640.63;;;-0.05;94.19
39141;BME280;24875;48.436;10.298;2023-03-04T02:29:53;96642.97;;;-0.14;94.49
39141;BME280;24875;48.436;10.298;2023-03-04T02:32:20;96640.09;;;-0.22;94.33
39141;BME280;24875;48.436;10.298;2023-03-04T02:34:48;96641.84;;;-0.10;93.96
39141;BME280;24875;48.436;10.298;2023-03-04T02:37:16;96634.41;;;-0.15;94.57
39141;BME280;24875;48.436;10.298;2023-03-04T02:39:44;96644.25;;;-0.07;94.01
39141;BME280;24875;48.436;10.298;2023-03-04T02:42:11;96639.16;;;-0.21;94.41
39141;BME280;24875;48.436;10.298;2023-03-04T02:44:41;96646.09;;;-0.09;92.12
39141;BME280;24875;48.436;10.298;2023-03-04T02:47:11;96650.66;;;-0.25;94.04
39141;BME280;24875;48.436;10.298;2023-03-04T02:49:39;96644.53;;;-0.24;95.84
39141;BME280;24875;48.436;10.298;2023-03-04T02:52:08;96645.56;;;-0.14;95.39
39141;BME280;24875;48.436;10.298;2023-03-04T02:54:37;96646.31;;;-0.12;94.63
39141;BME280;24875;48.436;10.298;2023-03-04T02:57:05;96640.00;;;-0.08;94.01
39141;BME280;24875;48.436;10.298;2023-03-04T02:59:33;96642.81;;;-0.11;91.64
39141;BME280;24875;48.436;10.298;2023-03-04T03:02:01;96645.78;;;-0.17;93.57
39141;BME280;24875;48.436;10.298;2023-03-04T03:04:28;96645.78;;;-0.30;92.92
39141;BME280;24875;48.436;10.298;2023-03-04T03:06:55;96642.88;;;-0.38;94.87
39141;BME280;24875;48.436;10.298;2023-03-04T03:09:22;96644.75;;;-0.27;95.98
39141;BME280;24875;48.436;10.298;2023-03-04T03:11:48;96643.91;;;-0.15;94.97
39141;BME280;24875;48.436;10.298;2023-03-04T03:14:15;96640.84;;;-0.20;95.50
39141;BME280;24875;48.436;10.298;2023-03-04T03:16:41;96638.53;;;-0.25;96.33
39141;BME280;24875;48.436;10.298;2023-03-04T03:19:09;96638.25;;;-0.20;96.49
39141;BME280;24875;48.436;10.298;2023-03-04T03:21:36;96634.28;;;-0.26;97.04
39141;BME280;24875;48.436;10.298;2023-03-04T03:24:02;96639.34;;;-0.24;96.10
39141;BME280;24875;48.436;10.298;2023-03-04T03:26:29;96639.78;;;-0.30;95.18
39141;BME280;24875;48.436;10.298;2023-03-04T03:28:55;96643.69;;;-0.37;94.76
39141;BME280;24875;48.436;10.298;2023-03-04T03:31:22;96630.22;;;-0.42;93.69
39141;BME280;24875;48.436;10.298;2023-03-04T03:33:48;96635.00;;;-0.36;93.54
39141;BME280;24875;48.436;10.298;2023-03-04T03:36:16;96635.63;;;-0.33;93.70
39141;BME280;24875;48.436;10.298;2023-03-04T03:38:43;96641.81;;;-0.48;94.63
39141;BME280;24875;48.436;10.298;2023-03-04T03:41:09;96644.94;;;-0.43;95.39
39141;BME280;24875;48.436;10.298;2023-03-04T03:43:36;96651.16;;;-0.33;94.38
39141;BME280;24875;48.436;10.298;2023-03-04T03:46:02;96640.38;;;-0.39;93.35
39141;BME280;24875;48.436;10.298;2023-03-04T03:48:28;96641.00;;;-0.48;94.65
39141;BME280;24875;48.436;10.298;2023-03-04T03:50:55;96638.31;;;-0.47;96.28
39141;BME280;24875;48.436;10.298;2023-03-04T03:53:23;96634.59;;;-0.30;96.55
39141;BME280;24875;48.436;10.298;2023-03-04T03:55:49;96638.34;;;-0.34;94.22
39141;BME280;24875;48.436;10.298;2023-03-04T03:58:16;96642.25;;;-0.41;92.77
39141;BME280;24875;48.436;10.298;2023-03-04T04:00:42;96641.59;;;-0.57;93.75
39141;BME280;24875;48.436;10.298;2023-03-04T04:03:10;96638.81;;;-0.54;96.54
39141;BME280;24875;48.436;10.298;2023-03-04T04:05:39;96645.81;;;-0.56;96.62
39141;BME280;24875;48.436;10.298;2023-03-04T04:08:05;96643.38;;;-0.45;95.95
39141;BME280;24875;48.436;10.298;2023-03-04T04:10:33;96639.13;;;-0.46;95.43
39141;BME280;24875;48.436;10.298;2023-03-04T04:13:00;96635.16;;;-0.64;95.67
39141;BME280;24875;48.436;10.298;2023-03-04T04:15:26;96647.91;;;-0.61;96.19
39141;BME280;24875;48.436;10.298;2023-03-04T04:17:53;96645.94;;;-0.58;93.67
39141;BME280;24875;48.436;10.298;2023-03-04T04:20:19;96649.97;;;-0.66;92.01
39141;BME280;24875;48.436;10.298;2023-03-04T04:22:45;96640.13;;;-0.73;92.95
39141;BME280;24875;48.436;10.298;2023-03-04T04:25:12;96645.56;;;-0.78;93.58
39141;BME280;24875;48.436;10.298;2023-03-04T04:27:40;96641.72;;;-0.59;93.65
39141;BME280;24875;48.436;10.298;2023-03-04T04:30:07;96635.38;;;-0.67;93.81
39141;BME280;24875;48.436;10.298;2023-03-04T04:32:34;96645.88;;;-0.82;94.17
39141;BME280;24875;48.436;10.298;2023-03-04T04:35:00;96649.22;;;-0.68;93.62
39141;BME280;24875;48.436;10.298;2023-03-04T04:37:27;96645.81;;;-0.68;92.13
39141;BME280;24875;48.436;10.298;2023-03-04T04:39:53;96644.44;;;-0.74;92.78
39141;BME280;24875;48.436;10.298;2023-03-04T04:42:20;96633.22;;;-0.87;93.94
39141;BME280;24875;48.436;10.298;2023-03-04T04:44:48;96635.13;;;-0.76;94.55
39141;BME280;24875;48.436;10.298;2023-03-04T04:47:14;96638.66;;;-0.77;94.96
39141;BME280;24875;48.436;10.298;2023-03-04T04:49:41;96633.91;;;-0.71;94.74
39141;BME280;24875;48.436;10.298;2023-03-04T04:52:07;96637.03;;;-0.66;94.04
39141;BME280;24875;48.436;10.298;2023-03-04T04:54:34;96640.13;;;-0.73;94.08
39141;BME280;24875;48.436;10.298;2023-03-04T04:57:00;96640.66;;;-0.68;94.65
39141;BME280;24875;48.436;10.298;2023-03-04T04:59:27;96634.72;;;-0.70;92.24
39141;BME280;24875;48.436;10.298;2023-03-04T05:01:54;96646.09;;;-0.73;94.59
39141;BME280;24875;48.436;10.298;2023-03-04T05:04:21;96645.25;;;-0.86;96.16
39141;BME280;24875;48.436;10.298;2023-03-04T05:06:47;96650.63;;;-0.89;98.40
39141;BME280;24875;48.436;10.298;2023-03-04T05:09:14;96650.41;;;-0.86;96.23
39141;BME280;24875;48.436;10.298;2023-03-04T05:11:40;96644.06;;;-0.94;96.31
39141;BME280;24875;48.436;10.298;2023-03-04T05:14:07;96644.00;;;-0.93;97.44
39141;BME280;24875;48.436;10.298;2023-03-04T05:16:33;96647.94;;;-0.87;97.13
39141;BME280;24875;48.436;10.298;2023-03-04T05:19:01;96646.03;;;-0.98;97.23
39141;BME280;24875;48.436;10.298;2023-03-04T05:21:27;96644.16;;;-0.96;97.26
39141;BME280;24875;48.436;10.298;2023-03-04T05:23:54;96642.00;;;-0.89;98.01
39141;BME280;24875;48.436;10.298;2023-03-04T05:26:20;96641.19;;;-0.90;97.55
39141;BME280;24875;48.436;10.298;2023-03-04T05:28:47;96641.41;;;-0.80;96.48
39141;BME280;24875;48.436;10.298;2023-03-04T05:31:14;96641.41;;;-0.93;95.88
39141;BME280;24875;48.436;10.298;2023-03-04T05:33:42;96640.88;;;-0.98;96.23
39141;BME280;24875;48.436;10.298;2023-03-04T05:36:09;96639.34;;;-0.88;95.76
39141;BME280;24875;48.436;10.298;2023-03-04T05:38:36;96649.78;;;-0.89;94.73
39141;BME280;24875;48.436;10.298;2023-03-04T05:41:05;96643.88;;;-0.91;95.36
39141;BME280;24875;48.436;10.298;2023-03-04T05:43:32;96645.25;;;-0.86;95.41
39141;BME280;24875;48.436;10.298;2023-03-04T05:46:00;96645.63;;;-0.92;95.84
39141;BME280;24875;48.436;10.298;2023-03-04T05:48:27;96646.03;;;-0.98;96.71
39141;BME280;24875;48.436;10.298;2023-03-04T05:50:55;96649.28;;;-0.82;96.77
39141;BME280;24875;48.436;10.298;2023-03-04T05:53:23;96655.22;;;-0.80;93.25
39141;BME280;24875;48.436;10.298;2023-03-04T05:55:50;96654.88;;;-0.88;94.81
39141;BME280;24875;48.436;10.298;2023-03-04T05:58:18;96654.94;;;-0.89;94.19
39141;BME280;24875;48.436;10.298;2023-03-04T06:00:45;96652.88;;;-0.97;92.98
39141;BME280;24875;48.436;10.298;2023-03-04T06:03:13;96654.50;;;-0.96;93.72
39141;BME280;24875;48.436;10.298;2023-03-04T06:05:40;96652.41;;;-1.03;95.17
39141;BME280;24875;48.436;10.298;2023-03-04T06:08:07;96658.56;;;-0.92;95.17
39141;BME280;24875;48.436;10.298;2023-03-04T06:10:35;96654.13;;;-0.90;95.62
39141;BME280;24875;48.436;10.298;2023-03-04T06:13:01;96655.63;;;-0.73;93.76
39141;BME280;24875;48.436;10.298;2023-03-04T06:15:28;96652.66;;;-0.67;93.96
39141;BME280;24875;48.436;10.298;2023-03-04T06:17:55;96661.94;;;-0.65;93.36
39141;BME280;24875;48.436;10.298;2023-03-04T06:20:21;96661.47;;;-0.58;94.73
39141;BME280;24875;48.436;10.298;2023-03-04T06:22:48;96667.66;;;-0.60;93.81
39141;BME280;24875;48.436;10.298;2023-03-04T06:25:14;96663.22;;;-0.58;94.49
39141;BME280;24875;48.436;10.298;2023-03-04T06:27:42;96671.25;;;-0.36;93.67
39141;BME280;24875;48.436;10.298;2023-03-04T06:30:09;96670.59;;;-0.52;92.60
39141;BME280;24875;48.436;10.298;2023-03-04T06:32:36;96675.56;;;-0.49;94.13
39141;BME280;24875;48.436;10.298;2023-03-04T06:35:03;96675.34;;;-0.46;93.98
39141;BME280;24875;48.436;10.298;2023-03-04T06:37:30;96680.97;;;-0.52;91.07
39141;BME280;24875;48.436;10.298;2023-03-04T06:39:56;96675.16;;;-0.56;94.62
39141;BME280;24875;48.436;10.298;2023-03-04T06:42:23;96681.38;;;-0.46;94.66
39141;BME280;24875;48.436;10.298;2023-03-04T06:44:50;96680.88;;;-0.26;94.45
39141;BME280;24875;48.436;10.298;2023-03-04T06:47:17;96691.13;;;-0.37;93.78
39141;BME280;24875;48.436;10.298;2023-03-04T06:49:43;96695.59;;;-0.26;94.76
39141;BME280;24875;48.436;10.298;2023-03-04T06:52:10;96690.72;;;-0.31;97.94
39141;BME280;24875;48.436;10.298;2023-03-04T06:54:37;96688.38;;;-0.21;98.81
39141;BME280;24875;48.436;10.298;2023-03-04T06:57:04;96698.28;;;-0.15;99.16
39141;BME280;24875;48.436;10.298;2023-03-04T06:59:30;96698.00;;;-0.11;98.96
39141;BME280;24875;48.436;10.298;2023-03-04T07:01:58;96701.13;;;0.06;98.91
39141;BME280;24875;48.436;10.298;2023-03-04T07:04:25;96706.09;;;0.09;98.48
39141;BME280;24875;48.436;10.298;2023-03-04T07:06:51;96699.25;;;0.08;97.97
39141;BME280;24875;48.436;10.298;2023-03-04T07:09:18;96700.59;;;0.14;96.73
39141;BME280;24875;48.436;10.298;2023-03-04T07:11:45;96703.94;;;0.16;96.58
39141;BME280;24875;48.436;10.298;2023-03-04T07:14:12;96705.06;;;0.24;97.47
39141;BME280;24875;48.436;10.298;2023-03-04T07:16:38;96707.84;;;0.21;99.79
39141;BME280;24875;48.436;10.298;2023-03-04T07:19:06;96701.31;;;0.41;99.98
39141;BME280;24875;48.436;10.298;2023-03-04T07:21:33;96702.16;;;0.41;99.51
39141;BME280;24875;48.436;10.298;2023-03-04T07:23:59;96709.59;;;0.58;98.29
39141;BME280;24875;48.436;10.298;2023-03-04T07:26:26;96709.88;;;0.66;97.90
39141;BME280;24875;48.436;10.298;2023-03-04T07:28:52;96710.00;;;0.77;97.47
39141;BME280;24875;48.436;10.298;2023-03-04T07:31:22;96714.72;;;0.95;97.24
39141;BME280;24875;48.436;10.298;2023-03-04T07:33:50;96715.09;;;1.02;98.11
39141;BME280;24875;48.436;10.298;2023-03-04T07:36:18;96708.44;;;1.10;98.88
39141;BME280;24875;48.436;10.298;2023-03-04T07:38:45;96717.63;;;1.03;99.45
39141;BME280;24875;48.436;10.298;2023-03-04T07:41:12;96720.38;;;1.13;100.00
39141;BME280;24875;48.436;10.298;2023-03-04T07:43:38;96718.78;;;1.22;100.00
39141;BME280;24875;48.436;10.298;2023-03-04T07:46:05;96711.03;;;1.33;100.00
39141;BME280;24875;48.436;10.298;2023-03-04T07:48:31;96717.47;;;1.40;100.00
39141;BME280;24875;48.436;10.298;2023-03-04T07:51:03;96721.09;;;1.61;100.00
39141;BME280;24875;48.436;10.298;2023-03-04T07:53:31;96721.47;;;1.68;100.00
39141;BME280;24875;48.436;10.298;2023-03-04T07:55:58;96720.44;;;1.70;100.00
39141;BME280;24875;48.436;10.298;2023-03-04T07:58:25;96715.59;;;2.11;100.00
39141;BME280;24875;48.436;10.298;2023-03-04T08:00:51;96719.72;;;2.58;100.00
39141;BME280;24875;48.436;10.298;2023-03-04T08:03:18;96714.00;;;2.86;100.00
39141;BME280;24875;48.436;10.298;2023-03-04T08:05:44;96719.91;;;2.99;99.78
39141;BME280;24875;48.436;10.298;2023-03-04T08:08:11;96717.78;;;3.04;96.16
39141;BME280;24875;48.436;10.298;2023-03-04T08:10:39;96711.19;;;2.89;95.38
39141;BME280;24875;48.436;10.298;2023-03-04T08:13:05;96716.84;;;2.40;95.98
39141;BME280;24875;48.436;10.298;2023-03-04T08:15:32;96713.09;;;2.76;95.32
39141;BME280;24875;48.436;10.298;2023-03-04T08:17:59;96714.97;;;2.63;95.66
39141;BME280;24875;48.436;10.298;2023-03-04T08:20:26;96710.94;;;2.48;96.21
39141;BME280;24875;48.436;10.298;2023-03-04T08:22:52;96708.34;;;2.59;96.72
39141;BME280;24875;48.436;10.298;2023-03-04T08:25:19;96707.78;;;2.56;96.93
39141;BME280;24875;48.436;10.298;2023-03-04T08:27:47;96715.44;;;2.79;96.06
39141;BME280;24875;48.436;10.298;2023-03-04T08:30:14;96704.31;;;2.88;96.31
39141;BME280;24875;48.436;10.298;2023-03-04T08:32:40;96717.56;;;2.74;97.49
39141;BME280;24875;48.436;10.298;2023-03-04T08:35:07;96724.44;;;2.86;97.76
39141;BME280;24875;48.436;10.298;2023-03-04T08:37:34;96731.38;;;2.53;100.00
39141;BME280;24875;48.436;10.298;2023-03-04T08:40:00;96724.66;;;2.72;100.00
39141;BME280;24875;48.436;10.298;2023-03-04T08:42:26;96740.75;;;2.66;100.00
39141;BME280;24875;48.436;10.298;2023-03-04T08:44:54;96725.38;;;3.07;100.00
39141;BME280;24875;48.436;10.298;2023-03-04T08:47:21;96729.97;;;3.03;98.24
39141;BME280;24875;48.436;10.298;2023-03-04T08:49:47;96738.16;;;3.21;97.03
39141;BME280;24875;48.436;10.298;2023-03-04T08:52:14;96730.47;;;3.08;95.36
39141;BME280;24875;48.436;10.298;2023-03-04T08:54:40;96736.34;;;3.32;96.93
39141;BME280;24875;48.436;10.298;2023-03-04T08:57:06;96733.53;;;3.02;97.88
39141;BME280;24875;48.436;10.298;2023-03-04T08:59:33;96741.44;;;3.34;97.09
39141;BME280;24875;48.436;10.298;2023-03-04T09:02:01;96735.44;;;3.54;95.65
39141;BME280;24875;48.436;10.298;2023-03-04T09:04:27;96738.19;;;3.52;93.45
39141;BME280;24875;48.436;10.298;2023-03-04T09:06:54;96740.63;;;3.64;93.80
39141;BME280;24875;48.436;10.298;2023-03-04T09:09:20;96745.78;;;3.75;91.81
39141;BME280;24875;48.436;10.298;2023-03-04T09:11:46;96749.09;;;3.88;92.89
39141;BME280;24875;48.436;10.298;2023-03-04T09:14:13;96746.72;;;3.85;96.15
39141;BME280;24875;48.436;10.298;2023-03-04T09:16:40;96743.25;;;3.64;95.11
39141;BME280;24875;48.436;10.298;2023-03-04T09:19:08;96739.03;;;3.53;93.81
39141;BME280;24875;48.436;10.298;2023-03-04T09:21:34;96748.47;;;3.64;93.70
39141;BME280;24875;48.436;10.298;2023-03-04T09:24:01;96742.06;;;3.58;91.54
39141;BME280;24875;48.436;10.298;2023-03-04T09:26:28;96750.28;;;3.84;95.48
39141;BME280;24875;48.436;10.298;2023-03-04T09:28:57;96743.00;;;3.67;91.76
39141;BME280;24875;48.436;10.298;2023-03-04T09:31:25;96737.72;;;4.10;93.56
39141;BME280;24875;48.436;10.298;2023-03-04T09:33:52;96750.56;;;4.02;90.81
39141;BME280;24875;48.436;10.298;2023-03-04T09:36:22;96741.50;;;4.17;89.80
39141;BME280;24875;48.436;10.298;2023-03-04T09:38:48;96735.34;;;4.18;90.87
39141;BME280;24875;48.436;10.298;2023-03-04T09:41:18;96736.59;;;4.23;90.41
39141;BME280;24875;48.436;10.298;2023-03-04T09:43:47;96740.16;;;4.22;88.00
39141;BME280;24875;48.436;10.298;2023-03-04T09:46:18;96726.91;;;4.55;88.32
39141;BME280;24875;48.436;10.298;2023-03-04T09:48:50;96732.72;;;4.58;90.17
39141;BME280;24875;48.436;10.298;2023-03-04T09:51:20;96733.84;;;4.65;89.46
39141;BME280;24875;48.436;10.298;2023-03-04T09:53:57;96736.25;;;4.78;87.39
39141;BME280;24875;48.436;10.298;2023-03-04T09:56:27;96734.00;;;4.73;84.39
39141;BME280;24875;48.436;10.298;2023-03-04T09:59:01;96732.59;;;4.89;86.12
39141;BME280;24875;48.436;10.298;2023-03-04T10:01:33;96734.41;;;4.69;85.17
39141;BME280;24875;48.436;10.298;2023-03-04T10:04:05;96741.34;;;4.79;85.81
39141;BME280;24875;48.436;10.298;2023-03-04T10:06:39;96738.56;;;4.71;84.64
39141;BME280;24875;48.436;10.298;2023-03-04T10:09:10;96735.75;;;4.43;88.81
39141;BME280;24875;48.436;10.298;2023-03-04T10:11:41;96734.00;;;4.43;87.05
39141;BME280;24875;48.436;10.298;2023-03-04T10:14:19;96734.25;;;4.40;87.52
39141;BME280;24875;48.436;10.298;2023-03-04T10:16:53;96727.06;;;4.33;89.18
39141;BME280;24875;48.436;10.298;2023-03-04T10:19:30;96732.81;;;4.57;85.97
39141;BME280;24875;48.436;10.298;2023-03-04T10:22:14;96735.06;;;4.41;87.17
39141;BME280;24875;48.436;10.298;2023-03-04T10:24:45;96732.84;;;4.36;89.43
39141;BME280;24875;48.436;10.298;2023-03-04T10:27:14;96735.66;;;4.24;86.63
39141;BME280;24875;48.436;10.298;2023-03-04T10:29:42;96738.75;;;4.18;88.95
39141;BME280;24875;48.436;10.298;2023-03-04T10:32:11;96724.81;;;4.49;86.14
39141;BME280;24875;48.436;10.298;2023-03-04T10:34:39;96716.72;;;4.52;84.34
39141;BME280;24875;48.436;10.298;2023-03-04T10:37:06;96727.94;;;4.43;84.42
39141;BME280;24875;48.436;10.298;2023-03-04T10:39:35;96714.69;;;4.55;83.05
39141;BME280;24875;48.436;10.298;2023-03-04T10:42:05;96718.25;;;4.54;82.90
39141;BME280;24875;48.436;10.298;2023-03-04T10:44:33;96719.41;;;4.61;84.01
39141;BME280;24875;48.436;10.298;2023-03-04T10:47:00;96726.31;;;4.72;82.66
39141;BME280;24875;48.436;10.298;2023-03-04T10:49:29;96717.78;;;4.99;83.74
39141;BME280;24875;48.436;10.298;2023-03-04T10:52:01;96722.94;;;4.81;82.89
39141;BME280;24875;48.436;10.298;2023-03-04T10:54:30;96719.09;;;4.84;84.83
39141;BME280;24875;48.436;10.298;2023-03-04T10:56:59;96718.88;;;4.97;82.35
39141;BME280;24875;48.436;10.298;2023-03-04T10:59:33;96711.31;;;4.94;83.34
39141;BME280;24875;48.436;10.298;2023-03-04T11:02:13;96715.84;;;5.01;82.64
39141;BME280;24875;48.436;10.298;2023-03-04T11:04:40;96707.41;;;4.79;81.19
39141;BME280;24875;48.436;10.298;2023-03-04T11:07:08;96718.09;;;5.06;81.30
39141;BME280;24875;48.436;10.298;2023-03-04T11:09:35;96705.41;;;5.01;81.43
39141;BME280;24875;48.436;10.298;2023-03-04T11:12:09;96696.59;;;5.32;81.40
39141;BME280;24875;48.436;10.298;2023-03-04T11:14:39;96705.91;;;5.25;82.22
39141;BME280;24875;48.436;10.298;2023-03-04T11:17:20;96712.78;;;5.17;80.23
39141;BME280;24875;48.436;10.298;2023-03-04T11:19:51;96704.44;;;5.32;83.95
39141;BME280;24875;48.436;10.298;2023-03-04T11:22:20;96704.81;;;5.37;80.43
39141;BME280;24875;48.436;10.298;2023-03-04T11:24:54;96702.72;;;5.22;79.89
39141;BME280;24875;48.436;10.298;2023-03-04T11:27:24;96709.31;;;5.16;80.33
39141;BME280;24875;48.436;10.298;2023-03-04T11:29:59;96706.97;;;5.13;80.08
39141;BME280;24875;48.436;10.298;2023-03-04T11:32:31;96703.00;;;5.09;80.92
39141;BME280;24875;48.436;10.298;2023-03-04T11:35:07;96706.63;;;4.88;80.19
39141;BME280;24875;48.436;10.298;2023-03-04T11:37:46;96707.00;;;4.83;81.22
39141;BME280;24875;48.436;10.298;2023-03-04T11:40:17;96701.59;;;5.05;80.76
39141;BME280;24875;48.436;10.298;2023-03-04T11:42:52;96712.56;;;4.70;80.47
39141;BME280;24875;48.436;10.298;2023-03-04T11:45:27;96707.28;;;4.90;84.04
39141;BME280;24875;48.436;10.298;2023-03-04T11:48:03;96710.16;;;4.78;82.13
39141;BME280;24875;48.436;10.298;2023-03-04T11:50:40;96710.09;;;4.68;81.83
39141;BME280;24875;48.436;10.298;2023-03-04T11:53:24;96712.19;;;4.24;84.21
39141;BME280;24875;48.436;10.298;2023-03-04T11:59:06;96700.22;;;4.42;84.85
39141;BME280;24875;48.436;10.298;2023-03-04T12:01:42;96703.25;;;4.77;86.95
39141;BME280;24875;48.436;10.298;2023-03-04T12:04:23;96694.38;;;4.88;85.58
39141;BME280;24875;48.436;10.298;2023-03-04T12:07:03;96690.94;;;4.88;82.44
39141;BME280;24875;48.436;10.298;2023-03-04T12:09:45;96685.28;;;4.83;87.53
39141;BME280;24875;48.436;10.298;2023-03-04T12:12:26;96687.53;;;4.87;86.54
39141;BME280;24875;48.436;10.298;2023-03-04T12:15:05;96686.66;;;4.78;84.84
39141;BME280;24875;48.436;10.298;2023-03-04T12:18:10;96683.56;;;4.93;82.13
39141;BME280;24875;48.436;10.298;2023-03-04T12:20:52;96682.34;;;5.06;82.73
39141;BME280;24875;48.436;10.298;2023-03-04T12:23:37;96678.53;;;4.81;82.88
39141;BME280;24875;48.436;10.298;2023-03-04T12:26:20;96686.72;;;3.96;83.86
39141;BME280;24875;48.436;10.298;2023-03-04T12:28:55;96667.59;;;4.57;86.36
39141;BME280;24875;48.436;10.298;2023-03-04T12:31:35;96671.00;;;4.78;83.87
39141;BME280;24875;48.436;10.298;2023-03-04T12:34:37;96666.19;;;4.53;84.08
39141;BME280;24875;48.436;10.298;2023-03-04T12:37:26;96672.66;;;4.28;84.98
39141;BME280;24875;48.436;10.298;2023-03-04T12:40:07;96660.47;;;3.88;84.81
39141;BME280;24875;48.436;10.298;2023-03-04T12:42:49;96665.69;;;3.88;85.74
39141;BME280;24875;48.436;10.298;2023-03-04T12:45:24;96669.91;;;3.89;87.07
39141;BME280;24875;48.436;10.298;2023-03-04T12:47:58;96665.59;;;3.99;88.59
39141;BME280;24875;48.436;10.298;2023-03-04T12:50:36;96654.97;;;3.71;86.98
39141;BME280;24875;48.436;10.298;2023-03-04T12:53:13;96657.41;;;3.83;87.35
39141;BME280;24875;48.436;10.298;2023-03-04T12:55:44;96651.34;;;4.03;86.22
39141;BME280;24875;48.436;10.298;2023-03-04T12:58:14;96646.97;;;3.83;86.02
39141;BME280;24875;48.436;10.298;2023-03-04T13:00:54;96656.13;;;4.19;84.55
39141;BME280;24875;48.436;10.298;2023-03-04T13:03:27;96644.72;;;4.40;83.70
39141;BME280;24875;48.436;10.298;2023-03-04T13:06:07;96648.09;;;4.31;83.00
39141;BME280;24875;48.436;10.298;2023-03-04T13:08:49;96646.09;;;4.44;81.02